Time,TemperatureF,DewpointF,PressureIn,WindDirection,WindDirectionDegrees,WindSpeedMPH,WindSpeedGustMPH,Humidity,HourlyPrecipIn,Conditions,Clouds,dailyrainin,SoftwareType,DateUTC
2013-02-02 00:02:00,34.3,20.0,30.20,SSE,161,3.0,-999.0,55,-99.99,,,0.00,weatherlink.com 1.10,2013-02-02 06:02:00,
2013-02-02 00:17:00,34.0,20.0,30.18,SSE,166,4.0,-999.0,56,-99.99,,,0.00,weatherlink.com 1.10,2013-02-02 06:17:00,
2013-02-02 00:32:00,33.8,20.0,30.18,South,173,4.0,-999.0,57,-99.99,,,0.00,weatherlink.com 1.10,2013-02-02 06:32:00,
2013-02-02 00:47:00,33.7,20.0,30.17,South,170,5.0,-999.0,57,-99.99,,,0.00,weatherlink.com 1.10,2013-02-02 06:47:00,
2013-02-02 01:02:00,33.7,20.0,30.17,South,175,4.0,-999.0,58,-99.99,,,0.00,weatherlink.com 1.10,2013-02-02 07:02:00,
2013-02-02 01:17:00,33.7,20.0,30.16,South,174,4.0,-999.0,58,-99.99,,,0.00,weatherlink.com 1.10,2013-02-02 07:17:00,
2013-02-02 01:32:00,33.7,21.0,30.16,South,174,0.0,-999.0,59,-99.99,,,0.00,weatherlink.com 1.10,2013-02-02 07:32:00,
2013-02-02 01:47:00,33.5,20.0,30.16,South,174,1.0,-999.0,59,-99.99,,,0.00,weatherlink.com 1.10,2013-02-02 07:47:00,
2013-02-02 02:17:00,33.1,20.0,30.16,South,174,0.0,-999.0,59,-99.99,,,0.00,weatherlink.com 1.10,2013-02-02 08:17:00,
2013-02-02 02:32:00,32.9,20.0,30.16,South,174,0.0,-999.0,60,-99.99,,,0.00,weatherlink.com 1.10,2013-02-02 08:32:00,
2013-02-02 02:47:00,32.7,20.0,30.16,South,174,0.0,-999.0,60,-99.99,,,0.00,weatherlink.com 1.10,2013-02-02 08:47:00,
2013-02-02 03:02:00,31.9,20.0,30.16,South,174,0.0,-999.0,62,-99.99,,,0.00,weatherlink.com 1.10,2013-02-02 09:02:00,
2013-02-02 03:17:00,31.5,20.0,30.16,South,174,0.0,-999.0,63,-99.99,,,0.00,weatherlink.com 1.10,2013-02-02 09:17:00,
2013-02-02 03:32:00,31.6,20.0,30.16,South,174,0.0,-999.0,63,-99.99,,,0.00,weatherlink.com 1.10,2013-02-02 09:32:00,
2013-02-02 03:47:00,31.6,20.0,30.16,South,174,0.0,-999.0,63,-99.99,,,0.00,weatherlink.com 1.10,2013-02-02 09:47:00,
2013-02-02 04:02:00,31.3,20.0,30.16,South,174,0.0,-999.0,63,-99.99,,,0.00,weatherlink.com 1.10,2013-02-02 10:02:00,
2013-02-02 04:17:00,31.3,20.0,30.16,South,174,0.0,-999.0,64,-99.99,,,0.00,weatherlink.com 1.10,2013-02-02 10:17:00,
2013-02-02 04:32:00,31.5,20.0,30.16,South,174,0.0,-999.0,63,-99.99,,,0.00,weatherlink.com 1.10,2013-02-02 10:32:00,
2013-02-02 04:47:00,31.3,20.0,30.16,South,174,0.0,-999.0,63,-99.99,,,0.00,weatherlink.com 1.10,2013-02-02 10:47:00,
2013-02-02 05:02:00,30.9,20.0,30.16,South,174,0.0,-999.0,64,-99.99,,,0.00,weatherlink.com 1.10,2013-02-02 11:02:00,
2013-02-02 05:17:00,30.4,19.0,30.17,South,174,0.0,-999.0,64,-99.99,,,0.00,weatherlink.com 1.10,2013-02-02 11:17:00,
2013-02-02 05:32:00,30.1,20.0,30.18,South,174,0.0,-999.0,65,-99.99,,,0.00,weatherlink.com 1.10,2013-02-02 11:32:00,
2013-02-02 05:47:00,30.1,20.0,30.18,South,174,0.0,-999.0,66,-99.99,,,0.00,weatherlink.com 1.10,2013-02-02 11:47:00,
2013-02-02 06:02:00,30.1,20.0,30.18,South,174,0.0,-999.0,66,-99.99,,,0.00,weatherlink.com 1.10,2013-02-02 12:02:00,
2013-02-02 06:17:00,30.4,20.0,30.18,South,174,0.0,-999.0,65,-99.99,,,0.00,weatherlink.com 1.10,2013-02-02 12:17:00,
2013-02-02 06:32:00,30.7,20.0,30.18,South,174,1.0,-999.0,65,-99.99,,,0.00,weatherlink.com 1.10,2013-02-02 12:32:00,
2013-02-02 06:47:00,30.9,20.0,30.18,South,175,0.0,-999.0,65,-99.99,,,0.00,weatherlink.com 1.10,2013-02-02 12:47:00,
2013-02-02 07:02:00,30.9,20.0,30.19,South,175,0.0,-999.0,65,-99.99,,,0.00,weatherlink.com 1.10,2013-02-02 13:02:00,
2013-02-02 07:17:00,30.6,20.0,30.19,South,175,0.0,-999.0,65,-99.99,,,0.00,weatherlink.com 1.10,2013-02-02 13:17:00,
2013-02-02 07:32:00,30.3,20.0,30.20,South,175,0.0,-999.0,66,-99.99,,,0.00,weatherlink.com 1.10,2013-02-02 13:32:00,
2013-02-02 07:47:00,30.3,20.0,30.20,South,175,0.0,-999.0,67,-99.99,,,0.00,weatherlink.com 1.10,2013-02-02 13:47:00,
2013-02-02 08:02:00,30.7,21.0,30.20,South,175,0.0,-999.0,68,-99.99,,,0.00,weatherlink.com 1.10,2013-02-02 14:02:00,
2013-02-02 08:17:00,31.6,22.0,30.21,South,178,0.0,-999.0,69,-99.99,,,0.00,weatherlink.com 1.10,2013-02-02 14:17:00,
2013-02-02 08:32:00,32.5,23.0,30.22,South,188,0.0,-999.0,68,-99.99,,,0.00,weatherlink.com 1.10,2013-02-02 14:32:00,
2013-02-02 08:47:00,34.0,24.0,30.22,South,190,3.0,-999.0,67,-99.99,,,0.00,weatherlink.com 1.10,2013-02-02 14:47:00,
2013-02-02 09:02:00,35.8,25.0,30.22,SSW,207,1.0,-999.0,64,-99.99,,,0.00,weatherlink.com 1.10,2013-02-02 15:02:00,
2013-02-02 09:17:00,37.5,25.0,30.23,WSW,255,2.0,-999.0,61,-99.99,,,0.00,weatherlink.com 1.10,2013-02-02 15:17:00,
2013-02-02 09:32:00,38.2,25.0,30.23,West,274,1.0,-999.0,60,-99.99,,,0.00,weatherlink.com 1.10,2013-02-02 15:32:00,
2013-02-02 09:47:00,39.8,26.0,30.24,WNW,289,0.0,-999.0,58,-99.99,,,0.00,weatherlink.com 1.10,2013-02-02 15:47:00,
2013-02-02 10:02:00,43.1,25.0,30.24,NNW,333,2.0,-999.0,50,-99.99,,,0.00,weatherlink.com 1.10,2013-02-02 16:02:00,
2013-02-02 10:17:00,44.9,25.0,30.25,NNW,345,3.0,-999.0,45,-99.99,,,0.00,weatherlink.com 1.10,2013-02-02 16:17:00,
2013-02-02 10:32:00,44.8,24.0,30.26,North,9,7.0,-999.0,44,-99.99,,,0.00,weatherlink.com 1.10,2013-02-02 16:32:00,
2013-02-02 10:47:00,45.1,24.0,30.26,NE,36,6.0,-999.0,43,-99.99,,,0.00,weatherlink.com 1.10,2013-02-02 16:47:00,
2013-02-02 11:02:00,46.0,25.0,30.26,North,5,1.0,-999.0,44,-99.99,,,0.00,weatherlink.com 1.10,2013-02-02 17:02:00,
2013-02-02 11:17:00,47.6,25.0,30.26,NNE,30,3.0,-999.0,41,-99.99,,,0.00,weatherlink.com 1.10,2013-02-02 17:17:00,
2013-02-02 11:32:00,47.7,25.0,30.26,NNE,30,4.0,-999.0,41,-99.99,,,0.00,weatherlink.com 1.10,2013-02-02 17:32:00,
2013-02-02 11:47:00,48.5,26.0,30.26,NNE,24,9.0,-999.0,41,-99.99,,,0.00,weatherlink.com 1.10,2013-02-02 17:47:00,
2013-02-02 12:02:00,49.9,26.0,30.25,NNE,18,4.0,-999.0,40,-99.99,,,0.00,weatherlink.com 1.10,2013-02-02 18:02:00,
2013-02-02 12:17:00,51.4,26.0,30.25,NNW,338,3.0,-999.0,38,-99.99,,,0.00,weatherlink.com 1.10,2013-02-02 18:17:00,
2013-02-02 12:32:00,51.0,27.0,30.24,NW,309,3.0,-999.0,40,-99.99,,,0.00,weatherlink.com 1.10,2013-02-02 18:32:00,
2013-02-02 12:47:00,52.6,28.0,30.23,NNW,329,2.0,-999.0,39,-99.99,,,0.00,weatherlink.com 1.10,2013-02-02 18:47:00,
2013-02-02 13:02:00,52.8,28.0,30.23,NW,321,0.0,-999.0,39,-99.99,,,0.00,weatherlink.com 1.10,2013-02-02 19:02:00,
2013-02-02 13:17:00,53.8,29.0,30.21,North,350,1.0,-999.0,38,-99.99,,,0.00,weatherlink.com 1.10,2013-02-02 19:17:00,
2013-02-02 13:32:00,54.1,28.0,30.21,NW,314,2.0,-999.0,37,-99.99,,,0.00,weatherlink.com 1.10,2013-02-02 19:32:00,
2013-02-02 13:47:00,54.8,28.0,30.21,NW,313,5.0,-999.0,36,-99.99,,,0.00,weatherlink.com 1.10,2013-02-02 19:47:00,
2013-02-02 14:02:00,54.1,28.0,30.21,WNW,286,2.0,-999.0,37,-99.99,,,0.00,weatherlink.com 1.10,2013-02-02 20:02:00,
2013-02-02 14:19:00,55.1,27.0,30.21,WNW,284,3.0,-999.0,34,-99.99,,,0.00,weatherlink.com 1.10,2013-02-02 20:19:00,
2013-02-02 14:34:00,56.3,28.0,30.21,North,5,1.0,-999.0,34,-99.99,,,0.00,weatherlink.com 1.10,2013-02-02 20:34:00,
2013-02-02 14:49:00,56.5,28.0,30.21,NW,314,0.0,-999.0,33,-99.99,,,0.00,weatherlink.com 1.10,2013-02-02 20:49:00,
2013-02-02 15:17:00,57.2,27.0,30.20,WSW,240,3.0,-999.0,32,-99.99,,,0.00,weatherlink.com 1.10,2013-02-02 21:17:00,
2013-02-02 15:33:00,57.6,28.0,30.20,WSW,237,0.0,-999.0,32,-99.99,,,0.00,weatherlink.com 1.10,2013-02-02 21:33:00,
2013-02-02 15:48:00,58.0,27.0,30.20,West,281,3.0,-999.0,31,-99.99,,,0.00,weatherlink.com 1.10,2013-02-02 21:48:00,
2013-02-02 16:06:00,57.8,27.0,30.20,WNW,292,2.0,-999.0,31,-99.99,,,0.00,weatherlink.com 1.10,2013-02-02 22:06:00,
2013-02-02 16:17:00,58.1,27.0,30.20,West,279,5.0,-999.0,31,-99.99,,,0.00,weatherlink.com 1.10,2013-02-02 22:17:00,
2013-02-02 16:32:00,57.6,28.0,30.20,WNW,288,4.0,-999.0,32,-99.99,,,0.00,weatherlink.com 1.10,2013-02-02 22:32:00,
2013-02-02 16:47:00,57.3,27.0,30.20,West,261,3.0,-999.0,32,-99.99,,,0.00,weatherlink.com 1.10,2013-02-02 22:47:00,
2013-02-02 17:02:00,57.3,27.0,30.21,WNW,291,2.0,-999.0,32,-99.99,,,0.00,weatherlink.com 1.10,2013-02-02 23:02:00,
2013-02-02 17:17:00,57.0,28.0,30.21,West,279,3.0,-999.0,33,-99.99,,,0.00,weatherlink.com 1.10,2013-02-02 23:17:00,
2013-02-02 17:32:00,56.7,28.0,30.21,WNW,300,2.0,-999.0,33,-99.99,,,0.00,weatherlink.com 1.10,2013-02-02 23:32:00,
2013-02-02 17:47:00,56.2,29.0,30.21,WNW,286,2.0,-999.0,35,-99.99,,,0.00,weatherlink.com 1.10,2013-02-02 23:47:00,
2013-02-02 18:02:00,55.6,29.0,30.21,WNW,288,0.0,-999.0,37,-99.99,,,0.00,weatherlink.com 1.10,2013-02-03 00:02:00,
2013-02-02 18:17:00,55.0,30.0,30.21,WNW,288,0.0,-999.0,38,-99.99,,,0.00,weatherlink.com 1.10,2013-02-03 00:17:00,
2013-02-02 18:32:00,54.2,30.0,30.21,WNW,288,0.0,-999.0,39,-99.99,,,0.00,weatherlink.com 1.10,2013-02-03 00:32:00,
2013-02-02 18:47:00,53.3,30.0,30.21,WNW,288,0.0,-999.0,41,-99.99,,,0.00,weatherlink.com 1.10,2013-02-03 00:47:00,
2013-02-02 19:02:00,52.8,30.0,30.21,WNW,288,0.0,-999.0,42,-99.99,,,0.00,weatherlink.com 1.10,2013-02-03 01:02:00,
2013-02-02 19:17:00,52.2,30.0,30.22,WNW,288,1.0,-999.0,43,-99.99,,,0.00,weatherlink.com 1.10,2013-02-03 01:17:00,
2013-02-02 19:32:00,51.7,30.0,30.22,WNW,288,1.0,-999.0,44,-99.99,,,0.00,weatherlink.com 1.10,2013-02-03 01:32:00,
2013-02-02 19:47:00,51.1,30.0,30.22,WNW,288,0.0,-999.0,45,-99.99,,,0.00,weatherlink.com 1.10,2013-02-03 01:47:00,
2013-02-02 20:02:00,50.7,30.0,30.23,WNW,288,0.0,-999.0,46,-99.99,,,0.00,weatherlink.com 1.10,2013-02-03 02:02:00,
2013-02-02 20:17:00,50.2,30.0,30.22,WNW,286,1.0,-999.0,47,-99.99,,,0.00,weatherlink.com 1.10,2013-02-03 02:17:00,
2013-02-02 20:32:00,49.6,30.0,30.22,WNW,286,0.0,-999.0,48,-99.99,,,0.00,weatherlink.com 1.10,2013-02-03 02:32:00,
2013-02-02 20:47:00,49.1,30.0,30.23,WNW,286,0.0,-999.0,49,-99.99,,,0.00,weatherlink.com 1.10,2013-02-03 02:47:00,
2013-02-02 21:02:00,48.6,31.0,30.23,WNW,286,0.0,-999.0,50,-99.99,,,0.00,weatherlink.com 1.10,2013-02-03 03:02:00,
2013-02-02 21:17:00,48.0,30.0,30.23,WNW,286,0.0,-999.0,51,-99.99,,,0.00,weatherlink.com 1.10,2013-02-03 03:17:00,
2013-02-02 21:32:00,47.6,31.0,30.23,WNW,286,0.0,-999.0,52,-99.99,,,0.00,weatherlink.com 1.10,2013-02-03 03:32:00,
2013-02-02 21:47:00,47.3,31.0,30.23,WNW,286,0.0,-999.0,53,-99.99,,,0.00,weatherlink.com 1.10,2013-02-03 03:47:00,
2013-02-02 22:02:00,46.8,31.0,30.23,WNW,286,0.0,-999.0,54,-99.99,,,0.00,weatherlink.com 1.10,2013-02-03 04:02:00,
2013-02-02 22:17:00,46.4,31.0,30.23,WNW,286,0.0,-999.0,55,-99.99,,,0.00,weatherlink.com 1.10,2013-02-03 04:17:00,
2013-02-02 22:32:00,46.0,31.0,30.23,WNW,286,0.0,-999.0,56,-99.99,,,0.00,weatherlink.com 1.10,2013-02-03 04:32:00,
2013-02-02 22:47:00,45.4,31.0,30.22,WNW,286,0.0,-999.0,57,-99.99,,,0.00,weatherlink.com 1.10,2013-02-03 04:47:00,
2013-02-02 23:17:00,44.5,30.0,30.22,WNW,286,0.0,-999.0,58,-99.99,,,0.00,weatherlink.com 1.10,2013-02-03 05:17:00,
2013-02-02 23:32:00,44.1,30.0,30.22,WNW,286,0.0,-999.0,59,-99.99,,,0.00,weatherlink.com 1.10,2013-02-03 05:32:00,
2013-02-02 23:47:00,43.8,31.0,30.22,WNW,286,0.0,-999.0,60,-99.99,,,0.00,weatherlink.com 1.10,2013-02-03 05:47:00,